createdAt,value
2024-02-24T00:01:50.329Z,99105.01
2024-02-24T00:04:18.373Z,99104.65
2024-02-24T00:06:46.937Z,99096.17
2024-02-24T00:09:14.948Z,99096.11
2024-02-24T00:11:43.308Z,99092.97
2024-02-24T00:14:11.822Z,99092.52
2024-02-24T00:16:40.507Z,99089.82
2024-02-24T00:19:08.586Z,99086.72
2024-02-24T00:21:36.535Z,99082.48
2024-02-24T00:24:04.606Z,99078.94
2024-02-24T00:26:33.071Z,99077.08
2024-02-24T00:29:01.524Z,99068.27
2024-02-24T00:31:29.468Z,99060.80
2024-02-24T00:33:57.861Z,99052.29
2024-02-24T00:36:26.651Z,99048.80
2024-02-24T00:38:54.563Z,99035.35
2024-02-24T00:41:23.095Z,99027.92
2024-02-24T00:43:53.358Z,99016.23
2024-02-24T00:46:21.756Z,99018.86
2024-02-24T00:48:50.382Z,99002.98
2024-02-24T00:51:18.426Z,99007.66
2024-02-24T00:53:46.487Z,99010.23
2024-02-24T00:56:14.832Z,99001.77
2024-02-24T00:58:42.778Z,98995.83
2024-02-24T01:01:10.820Z,98992.38
2024-02-24T01:03:38.937Z,98997.88
2024-02-24T01:06:07.229Z,99002.52
2024-02-24T01:08:35.092Z,99009.92
2024-02-24T01:11:03.294Z,99014.31
2024-02-24T01:13:31.905Z,99015.86
2024-02-24T01:15:59.931Z,99012.23
2024-02-24T01:18:29.591Z,99008.33
2024-02-24T01:20:57.765Z,99010.45
2024-02-24T01:23:26.101Z,99001.27
2024-02-24T01:25:53.979Z,98992.97
2024-02-24T01:28:22.374Z,98985.50
2024-02-24T01:30:50.431Z,98976.10
2024-02-24T01:33:19.515Z,98974.33
2024-02-24T01:35:47.634Z,98968.59
2024-02-24T01:38:15.662Z,98960.17
2024-02-24T01:40:43.651Z,98946.77
2024-02-24T01:43:28.325Z,98946.32
2024-02-24T01:45:58.141Z,98935.15
2024-02-24T01:48:26.788Z,98934.73
2024-02-24T01:50:56.075Z,98942.03
2024-02-24T01:53:25.106Z,98945.49
2024-02-24T01:55:54.852Z,98933.42
2024-02-24T01:58:22.970Z,98926.16
2024-02-24T02:00:51.422Z,98919.27
2024-02-24T02:03:19.334Z,98930.32
2024-02-24T02:05:49.440Z,98925.71
2024-02-24T02:08:18.098Z,98925.42
2024-02-24T02:10:48.278Z,98927.66
2024-02-24T02:13:16.695Z,98932.43
2024-02-24T02:15:45.611Z,98934.59
2024-02-24T02:18:14.110Z,98932.98
2024-02-24T02:20:42.320Z,98929.48
2024-02-24T02:23:10.931Z,98936.13
2024-02-24T02:25:39.628Z,98929.76
2024-02-24T02:28:08.312Z,98920.38
2024-02-24T02:30:36.383Z,98920.16
2024-02-24T02:33:10.246Z,98917.05
2024-02-24T02:35:39.651Z,98911.23
2024-02-24T02:38:10.480Z,98900.38
2024-02-24T02:40:38.945Z,98895.09
2024-02-24T02:43:07.059Z,98899.52
2024-02-24T02:45:34.953Z,98901.09
2024-02-24T02:48:04.335Z,98895.44
2024-02-24T02:50:32.484Z,98888.27
2024-02-24T02:53:00.555Z,98887.52
2024-02-24T02:55:28.615Z,98891.70
2024-02-24T02:57:56.872Z,98884.77
2024-02-24T03:00:25.266Z,98888.38
2024-02-24T03:02:53.722Z,98896.66
2024-02-24T03:05:22.294Z,98895.61
2024-02-24T03:07:50.686Z,98899.95
2024-02-24T03:10:19.034Z,98905.43
2024-02-24T03:12:47.136Z,98903.11
2024-02-24T03:15:15.167Z,98887.75
2024-02-24T03:17:43.671Z,98883.34
2024-02-24T03:20:12.195Z,98897.52
2024-02-24T03:22:40.514Z,98899.38
2024-02-24T03:25:09.421Z,98899.64
2024-02-24T03:27:39.077Z,98902.92
2024-02-24T03:30:08.184Z,98895.68
2024-02-24T03:32:36.185Z,98891.00
2024-02-24T03:35:05.180Z,98886.09
2024-02-24T03:37:33.214Z,98877.86
2024-02-24T03:40:01.689Z,98876.84
2024-02-24T03:42:29.539Z,98871.80
2024-02-24T03:44:57.976Z,98865.63
2024-02-24T03:47:26.418Z,98873.00
2024-02-24T03:49:54.503Z,98875.92
2024-02-24T03:52:22.942Z,98881.39
2024-02-24T03:54:51.217Z,98885.98
2024-02-24T03:57:19.607Z,98888.63
2024-02-24T03:59:48.076Z,98895.11
2024-02-24T04:02:17.204Z,98888.63
2024-02-24T04:04:45.518Z,98885.23
2024-02-24T04:07:14.282Z,98883.52
2024-02-24T04:09:42.335Z,98882.55
2024-02-24T04:12:10.345Z,98882.77
2024-02-24T04:14:38.809Z,98880.20
2024-02-24T04:17:06.798Z,98878.98
2024-02-24T04:19:34.761Z,98876.73
2024-02-24T04:22:03.171Z,98876.96
2024-02-24T04:24:31.710Z,98869.86
2024-02-24T04:27:00.049Z,98869.73
2024-02-24T04:29:28.520Z,98867.11
2024-02-24T04:31:57.108Z,98864.02
2024-02-24T04:34:25.464Z,98860.80
2024-02-24T04:36:53.791Z,98858.98
2024-02-24T04:39:22.128Z,98862.97
2024-02-24T04:41:51.205Z,98869.95
2024-02-24T04:44:19.854Z,98876.67
2024-02-24T04:46:48.368Z,98878.56
2024-02-24T04:49:16.749Z,98869.98
2024-02-24T04:51:45.315Z,98871.92
2024-02-24T04:54:14.909Z,98876.02
2024-02-24T04:56:43.182Z,98887.61
2024-02-24T04:59:11.262Z,98901.55
2024-02-24T05:01:39.728Z,98896.90
2024-02-24T05:04:07.754Z,98887.19
2024-02-24T05:06:36.131Z,98903.15
2024-02-24T05:09:06.379Z,98916.86
2024-02-24T05:11:34.551Z,98933.33
2024-02-24T05:14:02.624Z,98941.55
2024-02-24T05:16:30.512Z,98947.80
2024-02-24T05:18:58.490Z,98948.52
2024-02-24T05:21:26.405Z,98947.01
2024-02-24T05:23:55.017Z,98946.90
2024-02-24T05:26:28.378Z,98948.02
2024-02-24T05:28:57.889Z,98942.70
2024-02-24T05:31:25.852Z,98945.39
2024-02-24T05:33:55.018Z,98945.54
2024-02-24T05:36:23.597Z,98952.43
2024-02-24T05:38:51.943Z,98949.47
2024-02-24T05:41:19.845Z,98954.55
2024-02-24T05:43:47.830Z,98960.20
2024-02-24T05:46:17.605Z,98967.67
2024-02-24T05:48:46.972Z,98975.27
2024-02-24T05:51:17.948Z,98989.30
2024-02-24T05:53:46.492Z,98995.80
2024-02-24T05:56:15.157Z,98998.93
2024-02-24T05:58:43.259Z,98998.67
2024-02-24T06:01:11.238Z,98999.53
2024-02-24T06:03:39.736Z,99003.21
2024-02-24T06:06:09.242Z,99020.14
2024-02-24T06:08:38.030Z,99025.27
2024-02-24T06:11:07.339Z,99023.45
2024-02-24T06:13:36.057Z,99033.76
2024-02-24T06:16:05.068Z,99040.26
2024-02-24T06:18:33.625Z,99045.27
2024-02-24T06:21:02.896Z,99037.80
2024-02-24T06:23:31.514Z,99035.13
2024-02-24T06:25:59.935Z,99036.20
2024-02-24T06:28:28.378Z,99038.19
2024-02-24T06:30:56.963Z,99040.77
2024-02-24T06:33:25.709Z,99042.04
2024-02-24T06:35:54.342Z,99044.32
2024-02-24T06:38:22.765Z,99045.54
2024-02-24T06:40:50.653Z,99045.95
2024-02-24T06:43:18.618Z,99045.31
2024-02-24T06:45:46.974Z,99046.77
2024-02-24T06:48:16.893Z,99050.97
2024-02-24T06:50:45.376Z,99056.98
2024-02-24T06:53:14.055Z,99068.27
2024-02-24T06:55:42.483Z,99080.25
2024-02-24T06:58:10.390Z,99082.61
2024-02-24T07:00:38.354Z,99093.98
2024-02-24T07:03:06.461Z,99102.82
2024-02-24T07:05:34.626Z,99106.33
2024-02-24T07:08:04.186Z,99099.61
2024-02-24T07:10:32.304Z,99103.14
2024-02-24T07:13:00.300Z,99117.92
2024-02-24T07:15:28.237Z,99126.75
2024-02-24T07:17:56.200Z,99135.67
2024-02-24T07:20:24.325Z,99140.90
2024-02-24T07:22:52.254Z,99144.67
2024-02-24T07:25:20.101Z,99151.45
2024-02-24T07:27:48.084Z,99163.28
2024-02-24T07:30:15.983Z,99164.78
2024-02-24T07:32:45.787Z,99165.98
2024-02-24T07:35:14.937Z,99170.48
2024-02-24T07:37:42.941Z,99173.39
2024-02-24T07:40:11.850Z,99176.81
2024-02-24T07:42:39.841Z,99182.05
2024-02-24T07:45:08.771Z,99183.28
2024-02-24T07:47:36.851Z,99185.04
2024-02-24T07:50:06.075Z,99187.21
2024-02-24T07:52:33.952Z,99187.63
2024-02-24T07:55:03.277Z,99187.27
2024-02-24T07:57:31.218Z,99190.21
2024-02-24T07:59:59.063Z,99189.75
2024-02-24T08:02:27.293Z,99193.35
2024-02-24T08:04:55.325Z,99196.19
2024-02-24T08:07:23.296Z,99206.95
2024-02-24T08:09:51.213Z,99213.00
2024-02-24T08:12:19.180Z,99220.66
2024-02-24T08:14:47.113Z,99216.18
2024-02-24T08:17:15.210Z,99222.14
2024-02-24T08:19:43.887Z,99232.65
2024-02-24T08:22:12.382Z,99232.24
2024-02-24T08:24:40.342Z,99231.66
2024-02-24T08:27:08.454Z,99235.59
2024-02-24T08:29:36.421Z,99231.42
2024-02-24T08:32:05.134Z,99238.16
2024-02-24T08:34:33.057Z,99239.22
2024-02-24T08:37:01.001Z,99245.40
2024-02-24T08:39:30.586Z,99251.55
2024-02-24T08:42:02.931Z,99256.34
2024-02-24T08:44:31.071Z,99260.15
2024-02-24T08:46:59.135Z,99259.89
2024-02-24T08:49:27.155Z,99263.73
2024-02-24T08:51:55.054Z,99266.68
2024-02-24T08:54:23.461Z,99266.54
2024-02-24T08:56:51.576Z,99272.75
2024-02-24T08:59:19.528Z,99274.27
2024-02-24T09:01:47.496Z,99278.77
2024-02-24T09:04:15.367Z,99277.63
2024-02-24T09:06:43.407Z,99278.20
2024-02-24T09:09:15.715Z,99280.84
2024-02-24T09:11:45.219Z,99280.91
2024-02-24T09:14:14.509Z,99289.77
2024-02-24T09:16:43.145Z,99294.00
2024-02-24T09:19:11.280Z,99301.98
2024-02-24T09:21:39.460Z,99309.84
2024-02-24T09:24:07.791Z,99316.43
2024-02-24T09:26:35.818Z,99319.68
2024-02-24T09:29:03.856Z,99324.41
2024-02-24T09:31:31.863Z,99331.98
2024-02-24T09:33:59.853Z,99332.43
2024-02-24T09:36:28.165Z,99332.15
2024-02-24T09:38:56.228Z,99335.14
2024-02-24T09:41:24.254Z,99339.00
2024-02-24T09:43:52.470Z,99346.11
2024-02-24T09:46:20.825Z,99348.68
2024-02-24T09:48:49.958Z,99357.73
2024-02-24T09:51:18.210Z,99363.53
2024-02-24T09:53:46.184Z,99365.60
2024-02-24T09:56:16.850Z,99374.48
2024-02-24T09:58:45.436Z,99378.94
2024-02-24T10:01:13.930Z,99379.90
2024-02-24T10:03:43.793Z,99379.69
2024-02-24T10:06:14.493Z,99382.76
2024-02-24T10:08:42.516Z,99386.75
2024-02-24T10:11:14.529Z,99392.10
2024-02-24T10:13:45.352Z,99394.52
2024-02-24T10:16:13.911Z,99396.48
2024-02-24T10:18:42.500Z,99401.80
2024-02-24T10:21:10.502Z,99400.48
2024-02-24T10:23:38.474Z,99404.71
2024-02-24T10:26:08.410Z,99408.38
2024-02-24T10:28:36.699Z,99411.80
2024-02-24T10:31:05.422Z,99417.20
2024-02-24T10:33:38.051Z,99421.45
2024-02-24T10:36:09.430Z,99415.42
2024-02-24T10:38:45.390Z,99418.88
2024-02-24T10:41:23.520Z,99422.79
2024-02-24T10:44:02.407Z,99431.32
2024-02-24T10:46:38.843Z,99433.95
2024-02-24T10:49:06.936Z,99437.48
2024-02-24T10:51:38.104Z,99446.55
2024-02-24T10:54:23.236Z,99450.65
2024-02-24T10:57:01.080Z,99445.48
2024-02-24T10:59:31.325Z,99449.46
2024-02-24T11:02:03.029Z,99453.98
2024-02-24T11:04:36.754Z,99451.91
2024-02-24T11:07:16.842Z,99446.52
2024-02-24T11:09:49.742Z,99455.09
2024-02-24T11:12:20.959Z,99455.02
2024-02-24T11:14:50.194Z,99454.84
2024-02-24T11:17:54.046Z,99449.40
2024-02-24T11:20:34.494Z,99458.23
2024-02-24T11:23:22.744Z,99459.45
2024-02-24T11:26:14.567Z,99458.32
2024-02-24T11:28:48.554Z,99463.80
2024-02-24T11:31:28.102Z,99467.95
2024-02-24T11:34:04.135Z,99469.31
2024-02-24T11:36:34.971Z,99468.36
2024-02-24T11:39:08.334Z,99479.23
2024-02-24T11:41:38.227Z,99478.45
2024-02-24T11:44:06.349Z,99474.47
2024-02-24T11:46:34.669Z,99475.42
2024-02-24T11:49:04.195Z,99476.45
2024-02-24T11:51:32.328Z,99482.64
2024-02-24T11:54:00.661Z,99484.17
2024-02-24T11:56:28.780Z,99485.34
2024-02-24T11:58:56.963Z,99486.20
2024-02-24T12:01:25.223Z,99488.67
2024-02-24T12:03:54.966Z,99487.86
2024-02-24T12:06:25.637Z,99488.52
2024-02-24T12:08:55.012Z,99490.77
2024-02-24T12:11:24.548Z,99494.70
2024-02-24T12:13:53.420Z,99490.41
2024-02-24T12:16:24.394Z,99494.45
2024-02-24T12:18:52.422Z,99492.41
2024-02-24T12:21:20.494Z,99499.39
2024-02-24T12:23:48.502Z,99500.16
2024-02-24T12:26:18.539Z,99501.06
2024-02-24T12:28:48.428Z,99501.49
2024-02-24T12:31:16.712Z,99503.54
2024-02-24T12:33:47.073Z,99505.58
2024-02-24T12:36:17.074Z,99507.71
2024-02-24T12:38:46.291Z,99512.54
2024-02-24T12:41:14.482Z,99523.47
2024-02-24T12:43:43.153Z,99520.83
2024-02-24T12:46:11.321Z,99527.24
2024-02-24T12:48:42.464Z,99524.98
2024-02-24T12:51:12.541Z,99530.83
2024-02-24T12:53:42.617Z,99528.59
2024-02-24T12:56:10.782Z,99535.98
2024-02-24T12:58:40.014Z,99541.81
2024-02-24T13:01:09.270Z,99543.86
2024-02-24T13:03:37.748Z,99545.80
2024-02-24T13:06:06.117Z,99540.59
2024-02-24T13:08:34.318Z,99547.94
2024-02-24T13:11:02.544Z,99546.67
2024-02-24T13:13:30.592Z,99554.16
2024-02-24T13:15:58.504Z,99554.87
2024-02-24T13:18:28.539Z,99562.14
2024-02-24T13:20:56.767Z,99559.55
2024-02-24T13:23:24.788Z,99562.59
2024-02-24T13:25:52.740Z,99558.69
2024-02-24T13:28:20.660Z,99566.21
2024-02-24T13:30:48.573Z,99568.68
2024-02-24T13:33:16.775Z,99571.90
2024-02-24T13:35:45.036Z,99565.88
2024-02-24T13:38:13.181Z,99562.69
2024-02-24T13:40:42.933Z,99568.61
2024-02-24T13:43:12.898Z,99568.00
2024-02-24T13:45:41.184Z,99570.26
2024-02-24T13:48:09.369Z,99568.08
2024-02-24T13:50:37.458Z,99569.98
2024-02-24T13:53:05.732Z,99576.40
2024-02-24T13:55:33.627Z,99572.52
2024-02-24T13:58:04.107Z,99581.92
2024-02-24T14:00:32.139Z,99591.05
2024-02-24T14:03:00.819Z,99594.06
2024-02-24T14:05:30.412Z,99594.02
2024-02-24T14:07:58.646Z,99589.74
2024-02-24T14:10:26.555Z,99594.75
2024-02-24T14:12:54.464Z,99597.80
2024-02-24T14:15:23.207Z,99601.94
2024-02-24T14:17:51.259Z,99605.27
2024-02-24T14:20:25.457Z,99604.32
2024-02-24T14:22:56.339Z,99610.66
2024-02-24T14:25:24.709Z,99605.89
2024-02-24T14:27:53.089Z,99612.94
2024-02-24T14:30:21.338Z,99618.15
2024-02-24T14:32:49.428Z,99619.06
2024-02-24T14:35:25.469Z,99622.59
2024-02-24T14:37:53.647Z,99621.64
2024-02-24T14:40:22.775Z,99624.11
2024-02-24T14:42:50.938Z,99625.84
2024-02-24T14:45:19.033Z,99619.41
2024-02-24T14:47:47.584Z,99626.64
2024-02-24T14:50:15.697Z,99627.70
2024-02-24T14:52:43.681Z,99630.60
2024-02-24T14:55:12.840Z,99642.42
2024-02-24T14:57:40.915Z,99644.52
2024-02-24T15:00:16.115Z,99646.23
2024-02-24T15:02:50.756Z,99650.38
2024-02-24T15:05:28.206Z,99651.30
2024-02-24T15:07:56.684Z,99654.71
2024-02-24T15:10:24.806Z,99662.14
2024-02-24T15:12:52.767Z,99662.65
2024-02-24T15:15:20.616Z,99666.30
2024-02-24T15:17:49.266Z,99668.00
2024-02-24T15:20:17.577Z,99670.49
2024-02-24T15:22:45.612Z,99671.92
2024-02-24T15:25:13.501Z,99671.66
2024-02-24T15:27:41.426Z,99670.95
2024-02-24T15:30:10.971Z,99672.64
2024-02-24T15:32:39.350Z,99675.63
2024-02-24T15:35:08.232Z,99680.82
2024-02-24T15:37:36.426Z,99690.08
2024-02-24T15:40:09.054Z,99695.84
2024-02-24T15:42:37.247Z,99701.81
2024-02-24T15:45:06.041Z,99705.83
2024-02-24T15:47:34.020Z,99716.40
2024-02-24T15:50:02.530Z,99722.98
2024-02-24T15:52:30.444Z,99724.61
2024-02-24T15:54:58.788Z,99728.13
2024-02-24T15:57:26.606Z,99731.55
2024-02-24T15:59:54.677Z,99731.95
2024-02-24T16:02:22.692Z,99733.73
2024-02-24T16:04:50.980Z,99733.11
2024-02-24T16:07:19.083Z,99730.81
2024-02-24T16:09:47.115Z,99733.66
2024-02-24T16:12:15.091Z,99732.09
2024-02-24T16:14:43.146Z,99738.27
2024-02-24T16:17:11.433Z,99741.09
2024-02-24T16:19:40.412Z,99742.36
2024-02-24T16:22:08.344Z,99745.70
2024-02-24T16:24:38.261Z,99745.23
2024-02-24T16:27:06.275Z,99751.67
2024-02-24T16:29:35.208Z,99756.11
2024-02-24T16:32:06.162Z,99756.31
2024-02-24T16:34:36.490Z,99759.85
2024-02-24T16:37:04.875Z,99758.30
2024-02-24T16:39:33.563Z,99758.10
2024-02-24T16:42:02.183Z,99761.42
2024-02-24T16:44:30.373Z,99763.40
2024-02-24T16:46:58.429Z,99767.18
2024-02-24T16:49:26.320Z,99770.79
2024-02-24T16:51:54.662Z,99774.80
2024-02-24T16:54:24.097Z,99773.30
2024-02-24T16:56:52.076Z,99771.88
2024-02-24T16:59:20.079Z,99769.73
2024-02-24T17:01:48.617Z,99773.55
2024-02-24T17:04:16.912Z,99774.98
2024-02-24T17:06:45.135Z,99779.30
2024-02-24T17:09:13.161Z,99778.45
2024-02-24T17:11:41.882Z,99778.04
2024-02-24T17:14:09.958Z,99774.66
2024-02-24T17:16:37.999Z,99769.85
2024-02-24T17:19:05.988Z,99768.24
2024-02-24T17:21:34.085Z,99767.41
2024-02-24T17:24:02.077Z,99772.08
2024-02-24T17:26:30.186Z,99775.41
2024-02-24T17:28:58.880Z,99780.58
2024-02-24T17:31:26.953Z,99791.16
2024-02-24T17:33:55.011Z,99796.94
2024-02-24T17:36:23.166Z,99797.96
2024-02-24T17:38:51.105Z,99803.22
2024-02-24T17:41:20.050Z,99809.06
2024-02-24T17:43:48.264Z,99806.83
2024-02-24T17:46:17.322Z,99813.09
2024-02-24T17:48:45.477Z,99814.77
2024-02-24T17:51:16.001Z,99821.41
2024-02-24T17:53:44.267Z,99824.58
2024-02-24T17:56:12.192Z,99830.48
2024-02-24T17:58:47.123Z,99832.96
2024-02-24T18:01:16.530Z,99838.79
2024-02-24T18:03:44.568Z,99835.02
2024-02-24T18:06:12.696Z,99834.02
2024-02-24T18:08:40.626Z,99838.83
2024-02-24T18:11:10.811Z,99836.43
2024-02-24T18:13:39.309Z,99836.39
2024-02-24T18:16:09.625Z,99842.15
2024-02-24T18:18:38.935Z,99839.52
2024-02-24T18:21:14.389Z,99846.56
2024-02-24T18:23:42.390Z,99850.60
2024-02-24T18:26:10.359Z,99852.08
2024-02-24T18:28:38.294Z,99856.65
2024-02-24T18:31:06.519Z,99859.63
2024-02-24T18:33:34.485Z,99860.31
2024-02-24T18:36:03.882Z,99866.02
2024-02-24T18:38:33.005Z,99869.73
2024-02-24T18:41:01.206Z,99866.78
2024-02-24T18:43:29.142Z,99872.73
2024-02-24T18:45:58.553Z,99874.88
2024-02-24T18:48:26.770Z,99874.38
2024-02-24T18:50:54.921Z,99881.63
2024-02-24T18:53:23.523Z,99883.41
2024-02-24T18:55:51.458Z,99887.33
2024-02-24T18:58:19.293Z,99890.39
2024-02-24T19:00:47.545Z,99895.17
2024-02-24T19:03:15.624Z,99896.27
2024-02-24T19:05:43.770Z,99895.38
2024-02-24T19:08:12.092Z,99891.59
2024-02-24T19:10:40.034Z,99896.58
2024-02-24T19:13:08.220Z,99894.40
2024-02-24T19:15:36.169Z,99899.82
2024-02-24T19:18:05.424Z,99904.17
2024-02-24T19:20:33.401Z,99903.96
2024-02-24T19:23:01.576Z,99902.54
2024-02-24T19:25:29.538Z,99903.02
2024-02-24T19:27:57.495Z,99900.73
2024-02-24T19:30:25.574Z,99902.09
2024-02-24T19:32:53.597Z,99903.84
2024-02-24T19:35:21.601Z,99900.95
2024-02-24T19:37:50.044Z,99907.28
2024-02-24T19:40:18.044Z,99910.13
2024-02-24T19:42:45.998Z,99915.20
2024-02-24T19:45:14.592Z,99914.94
2024-02-24T19:47:42.796Z,99917.92
2024-02-24T19:50:10.974Z,99914.61
2024-02-24T19:52:39.135Z,99914.25
2024-02-24T19:55:08.445Z,99918.15
2024-02-24T19:57:36.677Z,99915.20
2024-02-24T20:00:05.562Z,99917.41
2024-02-24T20:02:39.003Z,99917.41
2024-02-24T20:05:09.188Z,99921.07
2024-02-24T20:07:37.934Z,99918.97
2024-02-24T20:10:06.407Z,99918.28
2024-02-24T20:12:35.732Z,99920.14
2024-02-24T20:15:04.311Z,99921.79
2024-02-24T20:17:32.486Z,99920.14
2024-02-24T20:20:00.953Z,99921.20
2024-02-24T20:22:30.204Z,99921.43
2024-02-24T20:24:58.044Z,99924.23
2024-02-24T20:27:27.595Z,99926.54
2024-02-24T20:29:55.576Z,99928.05
2024-02-24T20:32:23.762Z,99928.27
2024-02-24T20:34:51.922Z,99929.91
2024-02-24T20:37:19.805Z,99931.45
2024-02-24T20:39:47.701Z,99930.20
2024-02-24T20:42:15.943Z,99935.59
2024-02-24T20:44:43.850Z,99935.69
2024-02-24T20:47:11.750Z,99940.36
2024-02-24T20:49:39.740Z,99943.15
2024-02-24T20:52:08.555Z,99940.43
2024-02-24T20:54:39.635Z,99940.46
2024-02-24T20:57:08.327Z,99939.82
2024-02-24T20:59:36.372Z,99948.86
2024-02-24T21:02:04.709Z,99953.02
2024-02-24T21:04:33.213Z,99958.34
2024-02-24T21:07:02.770Z,99955.02
2024-02-24T21:09:31.606Z,99957.69
2024-02-24T21:11:59.786Z,99959.80
2024-02-24T21:14:28.378Z,99959.05
2024-02-24T21:16:56.679Z,99961.86
2024-02-24T21:19:24.666Z,99962.02
2024-02-24T21:21:55.671Z,99966.35
2024-02-24T21:24:23.748Z,99970.38
2024-02-24T21:26:51.783Z,99967.80
2024-02-24T21:29:19.873Z,99962.95
2024-02-24T21:31:51.684Z,99969.08
2024-02-24T21:34:21.730Z,99967.09
2024-02-24T21:36:49.713Z,99967.70
2024-02-24T21:39:17.570Z,99970.48
2024-02-24T21:41:45.562Z,99968.98
2024-02-24T21:44:13.902Z,99970.39
2024-02-24T21:46:41.782Z,99965.44
2024-02-24T21:49:09.996Z,99966.58
2024-02-24T21:51:38.483Z,99962.24
2024-02-24T21:54:10.280Z,99965.94
2024-02-24T21:56:38.741Z,99973.84
2024-02-24T21:59:06.664Z,99975.44
2024-02-24T22:01:34.665Z,99979.96
2024-02-24T22:04:04.510Z,99982.61
2024-02-24T22:06:32.727Z,99981.01
2024-02-24T22:09:01.008Z,99981.02
2024-02-24T22:11:32.884Z,99982.79
2024-02-24T22:14:01.400Z,99988.50
2024-02-24T22:16:30.005Z,99990.54
2024-02-24T22:18:58.192Z,99989.09
2024-02-24T22:21:27.912Z,99989.70
2024-02-24T22:23:56.325Z,99986.55
2024-02-24T22:26:25.433Z,99988.49
2024-02-24T22:28:53.805Z,99990.11
2024-02-24T22:31:21.926Z,99988.11
2024-02-24T22:33:50.748Z,99994.11
2024-02-24T22:36:21.073Z,99991.00
2024-02-24T22:38:52.984Z,99991.84
2024-02-24T22:41:25.280Z,99989.25
2024-02-24T22:43:53.342Z,99997.08
2024-02-24T22:46:21.780Z,100000.52
2024-02-24T22:48:50.182Z,100003.32
2024-02-24T22:51:19.371Z,100005.44
2024-02-24T22:53:47.320Z,100009.48
2024-02-24T22:56:15.316Z,100013.17
2024-02-24T22:58:46.644Z,100014.94
2024-02-24T23:01:17.897Z,100017.50
2024-02-24T23:03:45.893Z,100016.79
2024-02-24T23:06:13.992Z,100019.23
2024-02-24T23:08:42.126Z,100024.86
2024-02-24T23:11:11.559Z,100026.60
2024-02-24T23:13:42.462Z,100030.26
2024-02-24T23:16:10.341Z,100031.02
2024-02-24T23:18:38.382Z,100030.70
2024-02-24T23:21:06.740Z,100026.52
2024-02-24T23:23:34.864Z,100030.15
2024-02-24T23:26:03.335Z,100028.64
2024-02-24T23:28:31.263Z,100028.85
2024-02-24T23:31:00.104Z,100029.55
2024-02-24T23:33:28.127Z,100029.65
2024-02-24T23:35:56.369Z,100030.71
2024-02-24T23:38:24.385Z,100028.80
2024-02-24T23:40:52.321Z,100032.20
2024-02-24T23:43:20.248Z,100035.18
2024-02-24T23:45:48.445Z,100038.63
2024-02-24T23:48:16.430Z,100036.77
2024-02-24T23:50:44.709Z,100039.05
2024-02-24T23:53:12.686Z,100038.67
2024-02-24T23:55:40.551Z,100031.06
2024-02-24T23:58:08.709Z,100026.44
